sensor_id;sensor_type;location;lat;lon;timestamp;temperature;humidity
70734;DHT22;58320;48.804;9.252;2022-12-24T00:02:18;10.70;81.90
70734;DHT22;58320;48.804;9.252;2022-12-24T00:04:44;10.80;81.80
70734;DHT22;58320;48.804;9.252;2022-12-24T00:07:10;10.90;80.50
70734;DHT22;58320;48.804;9.252;2022-12-24T00:09:36;11.00;80.30
70734;DHT22;58320;48.804;9.252;2022-12-24T00:12:02;11.00;80.20
70734;DHT22;58320;48.804;9.252;2022-12-24T00:14:28;11.00;80.20
70734;DHT22;58320;48.804;9.252;2022-12-24T00:16:54;11.10;79.30
70734;DHT22;58320;48.804;9.252;2022-12-24T00:19:19;11.10;79.20
70734;DHT22;58320;48.804;9.252;2022-12-24T00:21:45;11.20;79.10
70734;DHT22;58320;48.804;9.252;2022-12-24T00:24:11;11.20;79.50
70734;DHT22;58320;48.804;9.252;2022-12-24T00:26:37;11.20;79.00
70734;DHT22;58320;48.804;9.252;2022-12-24T00:29:02;11.20;79.10
70734;DHT22;58320;48.804;9.252;2022-12-24T00:31:29;11.20;79.20
70734;DHT22;58320;48.804;9.252;2022-12-24T00:33:54;11.20;78.80
70734;DHT22;58320;48.804;9.252;2022-12-24T00:36:20;11.20;78.50
70734;DHT22;58320;48.804;9.252;2022-12-24T00:38:46;11.20;78.70
70734;DHT22;58320;48.804;9.252;2022-12-24T00:41:13;11.20;78.60
70734;DHT22;58320;48.804;9.252;2022-12-24T00:44:02;11.10;78.60
70734;DHT22;58320;48.804;9.252;2022-12-24T00:46:35;11.10;78.80
70734;DHT22;58320;48.804;9.252;2022-12-24T00:49:04;11.10;78.90
70734;DHT22;58320;48.804;9.252;2022-12-24T00:51:31;11.10;79.10
70734;DHT22;58320;48.804;9.252;2022-12-24T00:53:58;11.00;79.10
70734;DHT22;58320;48.804;9.252;2022-12-24T00:56:24;11.00;79.20
70734;DHT22;58320;48.804;9.252;2022-12-24T00:58:50;11.00;79.00
70734;DHT22;58320;48.804;9.252;2022-12-24T01:01:17;11.00;78.60
70734;DHT22;58320;48.804;9.252;2022-12-24T01:03:43;11.00;78.20
70734;DHT22;58320;48.804;9.252;2022-12-24T01:06:15;11.10;77.50
70734;DHT22;58320;48.804;9.252;2022-12-24T01:08:43;11.10;77.80
70734;DHT22;58320;48.804;9.252;2022-12-24T01:11:10;11.20;77.00
70734;DHT22;58320;48.804;9.252;2022-12-24T01:13:37;11.20;76.60
70734;DHT22;58320;48.804;9.252;2022-12-24T01:16:14;11.30;76.90
70734;DHT22;58320;48.804;9.252;2022-12-24T01:18:42;11.30;76.60
70734;DHT22;58320;48.804;9.252;2022-12-24T01:21:08;11.30;76.60
70734;DHT22;58320;48.804;9.252;2022-12-24T01:23:34;11.30;77.40
70734;DHT22;58320;48.804;9.252;2022-12-24T01:26:01;11.20;77.80
70734;DHT22;58320;48.804;9.252;2022-12-24T01:28:28;11.10;78.40
70734;DHT22;58320;48.804;9.252;2022-12-24T01:30:53;11.00;79.00
70734;DHT22;58320;48.804;9.252;2022-12-24T01:33:19;10.90;80.10
70734;DHT22;58320;48.804;9.252;2022-12-24T01:35:45;10.80;80.50
70734;DHT22;58320;48.804;9.252;2022-12-24T01:38:11;10.70;81.30
70734;DHT22;58320;48.804;9.252;2022-12-24T01:40:39;10.60;81.50
70734;DHT22;58320;48.804;9.252;2022-12-24T01:43:25;10.60;82.30
70734;DHT22;58320;48.804;9.252;2022-12-24T01:45:57;10.50;84.30
70734;DHT22;58320;48.804;9.252;2022-12-24T01:48:45;10.40;86.60
70734;DHT22;58320;48.804;9.252;2022-12-24T01:51:26;10.20;89.60
70734;DHT22;58320;48.804;9.252;2022-12-24T01:54:17;10.00;95.20
70734;DHT22;58320;48.804;9.252;2022-12-24T01:56:50;9.80;96.60
70734;DHT22;58320;48.804;9.252;2022-12-24T01:59:19;9.70;99.10
70734;DHT22;58320;48.804;9.252;2022-12-24T02:01:47;9.70;99.90
70734;DHT22;58320;48.804;9.252;2022-12-24T02:04:35;9.60;99.90
70734;DHT22;58320;48.804;9.252;2022-12-24T02:07:04;9.50;99.90
70734;DHT22;58320;48.804;9.252;2022-12-24T02:09:31;9.50;99.90
70734;DHT22;58320;48.804;9.252;2022-12-24T02:11:59;9.50;99.90
70734;DHT22;58320;48.804;9.252;2022-12-24T02:14:26;9.50;99.90
70734;DHT22;58320;48.804;9.252;2022-12-24T02:32:34;9.30;99.90
70734;DHT22;58320;48.804;9.252;2022-12-24T02:35:22;9.20;99.90
70734;DHT22;58320;48.804;9.252;2022-12-24T02:37:56;9.20;99.90
70734;DHT22;58320;48.804;9.252;2022-12-24T02:40:35;9.20;99.90
70734;DHT22;58320;48.804;9.252;2022-12-24T02:43:09;9.20;99.90
70734;DHT22;58320;48.804;9.252;2022-12-24T02:45:39;9.10;99.90
70734;DHT22;58320;48.804;9.252;2022-12-24T02:48:08;9.10;99.90
70734;DHT22;58320;48.804;9.252;2022-12-24T02:50:35;9.00;99.90
70734;DHT22;58320;48.804;9.252;2022-12-24T02:53:00;9.00;99.90
70734;DHT22;58320;48.804;9.252;2022-12-24T03:04:50;9.00;99.90
70734;DHT22;58320;48.804;9.252;2022-12-24T03:07:21;8.90;99.90
70734;DHT22;58320;48.804;9.252;2022-12-24T03:10:18;8.90;99.90
70734;DHT22;58320;48.804;9.252;2022-12-24T03:13:09;9.00;99.90
70734;DHT22;58320;48.804;9.252;2022-12-24T03:15:39;9.00;99.90
70734;DHT22;58320;48.804;9.252;2022-12-24T03:18:08;9.00;99.90
70734;DHT22;58320;48.804;9.252;2022-12-24T03:20:43;9.00;99.90
70734;DHT22;58320;48.804;9.252;2022-12-24T03:23:13;9.00;99.90
70734;DHT22;58320;48.804;9.252;2022-12-24T03:25:41;8.90;99.90
70734;DHT22;58320;48.804;9.252;2022-12-24T03:28:12;9.00;99.90
70734;DHT22;58320;48.804;9.252;2022-12-24T03:30:45;8.90;99.90
70734;DHT22;58320;48.804;9.252;2022-12-24T03:33:13;8.90;99.90
70734;DHT22;58320;48.804;9.252;2022-12-24T03:35:39;8.90;99.90
70734;DHT22;58320;48.804;9.252;2022-12-24T03:38:05;8.90;99.90
70734;DHT22;58320;48.804;9.252;2022-12-24T03:40:31;8.80;99.90
70734;DHT22;58320;48.804;9.252;2022-12-24T03:42:57;8.80;99.90
70734;DHT22;58320;48.804;9.252;2022-12-24T03:45:23;8.80;99.90
70734;DHT22;58320;48.804;9.252;2022-12-24T03:47:49;8.70;99.90
70734;DHT22;58320;48.804;9.252;2022-12-24T03:50:15;8.70;99.90
70734;DHT22;58320;48.804;9.252;2022-12-24T03:52:41;8.80;99.90
70734;DHT22;58320;48.804;9.252;2022-12-24T03:55:07;8.80;99.90
70734;DHT22;58320;48.804;9.252;2022-12-24T03:57:32;8.80;99.90
70734;DHT22;58320;48.804;9.252;2022-12-24T03:59:58;8.80;99.90
70734;DHT22;58320;48.804;9.252;2022-12-24T04:02:24;8.80;99.90
70734;DHT22;58320;48.804;9.252;2022-12-24T04:04:50;8.90;99.90
70734;DHT22;58320;48.804;9.252;2022-12-24T04:07:16;8.90;99.90
70734;DHT22;58320;48.804;9.252;2022-12-24T04:09:41;8.90;99.90
70734;DHT22;58320;48.804;9.252;2022-12-24T04:12:07;8.90;99.90
70734;DHT22;58320;48.804;9.252;2022-12-24T04:14:33;8.90;99.90
70734;DHT22;58320;48.804;9.252;2022-12-24T04:16:59;8.90;99.90
70734;DHT22;58320;48.804;9.252;2022-12-24T04:19:25;8.90;99.90
70734;DHT22;58320;48.804;9.252;2022-12-24T04:21:51;8.80;99.90
70734;DHT22;58320;48.804;9.252;2022-12-24T04:24:16;8.80;99.90
70734;DHT22;58320;48.804;9.252;2022-12-24T04:26:42;8.80;99.90
70734;DHT22;58320;48.804;9.252;2022-12-24T04:29:08;8.80;99.90
70734;DHT22;58320;48.804;9.252;2022-12-24T04:31:34;8.80;99.90
70734;DHT22;58320;48.804;9.252;2022-12-24T04:33:59;8.80;99.90
70734;DHT22;58320;48.804;9.252;2022-12-24T04:36:25;8.80;99.90
70734;DHT22;58320;48.804;9.252;2022-12-24T04:38:51;8.80;99.90
70734;DHT22;58320;48.804;9.252;2022-12-24T04:41:19;8.80;99.90
70734;DHT22;58320;48.804;9.252;2022-12-24T04:43:46;8.80;99.90
70734;DHT22;58320;48.804;9.252;2022-12-24T04:46:16;8.80;99.90
70734;DHT22;58320;48.804;9.252;2022-12-24T04:48:44;8.90;99.90
70734;DHT22;58320;48.804;9.252;2022-12-24T04:51:11;8.90;99.90
70734;DHT22;58320;48.804;9.252;2022-12-24T04:53:39;8.90;99.90
70734;DHT22;58320;48.804;9.252;2022-12-24T04:56:11;8.90;99.90
70734;DHT22;58320;48.804;9.252;2022-12-24T04:58:40;8.90;99.90
70734;DHT22;58320;48.804;9.252;2022-12-24T05:01:07;8.90;99.90
70734;DHT22;58320;48.804;9.252;2022-12-24T05:03:35;8.90;99.90
70734;DHT22;58320;48.804;9.252;2022-12-24T05:06:02;8.90;99.90
70734;DHT22;58320;48.804;9.252;2022-12-24T05:08:29;8.90;99.90
70734;DHT22;58320;48.804;9.252;2022-12-24T05:10:59;8.80;99.90
70734;DHT22;58320;48.804;9.252;2022-12-24T05:13:26;8.80;99.90
70734;DHT22;58320;48.804;9.252;2022-12-24T05:15:53;8.70;99.90
70734;DHT22;58320;48.804;9.252;2022-12-24T05:18:19;8.60;99.90
70734;DHT22;58320;48.804;9.252;2022-12-24T05:20:45;8.60;99.90
70734;DHT22;58320;48.804;9.252;2022-12-24T05:23:16;8.60;99.90
70734;DHT22;58320;48.804;9.252;2022-12-24T05:26:02;8.50;99.90
70734;DHT22;58320;48.804;9.252;2022-12-24T05:28:51;8.60;99.90
70734;DHT22;58320;48.804;9.252;2022-12-24T05:31:19;8.80;97.10
70734;DHT22;58320;48.804;9.252;2022-12-24T05:33:47;8.90;96.90
70734;DHT22;58320;48.804;9.252;2022-12-24T05:36:14;8.90;95.90
70734;DHT22;58320;48.804;9.252;2022-12-24T05:38:40;9.00;94.20
70734;DHT22;58320;48.804;9.252;2022-12-24T05:41:07;9.10;93.10
70734;DHT22;58320;48.804;9.252;2022-12-24T05:43:34;9.10;92.70
70734;DHT22;58320;48.804;9.252;2022-12-24T05:46:07;9.10;92.30
70734;DHT22;58320;48.804;9.252;2022-12-24T05:48:35;9.10;92.00
70734;DHT22;58320;48.804;9.252;2022-12-24T05:51:07;9.10;91.40
70734;DHT22;58320;48.804;9.252;2022-12-24T05:53:35;9.10;90.90
70734;DHT22;58320;48.804;9.252;2022-12-24T05:56:03;9.10;91.00
70734;DHT22;58320;48.804;9.252;2022-12-24T05:58:33;9.00;91.90
70734;DHT22;58320;48.804;9.252;2022-12-24T06:01:00;9.00;91.70
70734;DHT22;58320;48.804;9.252;2022-12-24T06:03:27;8.90;91.90
70734;DHT22;58320;48.804;9.252;2022-12-24T06:06:16;8.80;92.60
70734;DHT22;58320;48.804;9.252;2022-12-24T06:08:44;8.80;92.60
70734;DHT22;58320;48.804;9.252;2022-12-24T06:11:12;8.90;91.60
70734;DHT22;58320;48.804;9.252;2022-12-24T06:13:40;8.90;91.10
70734;DHT22;58320;48.804;9.252;2022-12-24T06:16:09;8.90;91.00
70734;DHT22;58320;48.804;9.252;2022-12-24T06:18:37;8.90;90.80
70734;DHT22;58320;48.804;9.252;2022-12-24T06:21:04;8.90;91.10
70734;DHT22;58320;48.804;9.252;2022-12-24T06:23:32;8.90;90.80
70734;DHT22;58320;48.804;9.252;2022-12-24T06:26:00;9.00;90.70
70734;DHT22;58320;48.804;9.252;2022-12-24T06:28:29;9.10;89.90
70734;DHT22;58320;48.804;9.252;2022-12-24T06:30:56;9.00;90.20
70734;DHT22;58320;48.804;9.252;2022-12-24T06:33:22;9.00;90.60
70734;DHT22;58320;48.804;9.252;2022-12-24T06:35:48;8.90;90.60
70734;DHT22;58320;48.804;9.252;2022-12-24T06:38:15;8.90;90.70
70734;DHT22;58320;48.804;9.252;2022-12-24T06:40:42;9.00;90.70
70734;DHT22;58320;48.804;9.252;2022-12-24T06:43:10;9.00;90.50
70734;DHT22;58320;48.804;9.252;2022-12-24T06:45:36;9.00;90.60
70734;DHT22;58320;48.804;9.252;2022-12-24T06:48:02;8.90;91.00
70734;DHT22;58320;48.804;9.252;2022-12-24T06:50:28;8.90;91.00
70734;DHT22;58320;48.804;9.252;2022-12-24T06:52:54;9.00;90.40
70734;DHT22;58320;48.804;9.252;2022-12-24T06:55:20;9.00;90.30
70734;DHT22;58320;48.804;9.252;2022-12-24T06:57:46;9.10;90.20
70734;DHT22;58320;48.804;9.252;2022-12-24T07:00:12;9.10;90.10
70734;DHT22;58320;48.804;9.252;2022-12-24T07:02:39;9.20;89.60
70734;DHT22;58320;48.804;9.252;2022-12-24T07:05:12;9.20;89.80
70734;DHT22;58320;48.804;9.252;2022-12-24T07:07:39;9.20;89.90
70734;DHT22;58320;48.804;9.252;2022-12-24T07:10:09;9.20;89.90
70734;DHT22;58320;48.804;9.252;2022-12-24T07:12:36;9.20;89.60
70734;DHT22;58320;48.804;9.252;2022-12-24T07:15:02;9.20;89.80
70734;DHT22;58320;48.804;9.252;2022-12-24T07:17:28;9.30;88.80
70734;DHT22;58320;48.804;9.252;2022-12-24T07:19:54;9.30;88.80
70734;DHT22;58320;48.804;9.252;2022-12-24T07:22:20;9.30;88.50
70734;DHT22;58320;48.804;9.252;2022-12-24T07:24:46;9.40;87.70
70734;DHT22;58320;48.804;9.252;2022-12-24T07:27:12;9.40;87.80
70734;DHT22;58320;48.804;9.252;2022-12-24T07:29:38;9.40;87.90
70734;DHT22;58320;48.804;9.252;2022-12-24T07:32:04;9.30;87.90
70734;DHT22;58320;48.804;9.252;2022-12-24T07:34:30;9.30;88.30
70734;DHT22;58320;48.804;9.252;2022-12-24T07:36:56;9.20;88.90
70734;DHT22;58320;48.804;9.252;2022-12-24T07:39:22;9.20;89.10
70734;DHT22;58320;48.804;9.252;2022-12-24T07:41:48;9.10;89.40
70734;DHT22;58320;48.804;9.252;2022-12-24T07:44:15;9.10;89.60
70734;DHT22;58320;48.804;9.252;2022-12-24T07:46:41;9.00;89.90
70734;DHT22;58320;48.804;9.252;2022-12-24T07:49:08;9.00;90.40
70734;DHT22;58320;48.804;9.252;2022-12-24T07:51:35;9.00;90.50
70734;DHT22;58320;48.804;9.252;2022-12-24T07:54:01;9.00;90.30
70734;DHT22;58320;48.804;9.252;2022-12-24T07:56:32;9.00;90.50
70734;DHT22;58320;48.804;9.252;2022-12-24T07:58:58;9.00;90.00
70734;DHT22;58320;48.804;9.252;2022-12-24T08:01:24;9.00;89.50
70734;DHT22;58320;48.804;9.252;2022-12-24T08:03:50;9.10;89.50
70734;DHT22;58320;48.804;9.252;2022-12-24T08:06:21;9.10;89.20
70734;DHT22;58320;48.804;9.252;2022-12-24T08:08:47;9.10;89.00
70734;DHT22;58320;48.804;9.252;2022-12-24T08:11:13;9.10;89.10
70734;DHT22;58320;48.804;9.252;2022-12-24T08:13:39;9.10;89.10
70734;DHT22;58320;48.804;9.252;2022-12-24T08:16:05;9.10;89.10
70734;DHT22;58320;48.804;9.252;2022-12-24T08:18:31;9.10;89.20
70734;DHT22;58320;48.804;9.252;2022-12-24T08:20:57;9.10;88.20
70734;DHT22;58320;48.804;9.252;2022-12-24T08:23:23;9.10;88.50
70734;DHT22;58320;48.804;9.252;2022-12-24T08:25:49;9.20;88.20
70734;DHT22;58320;48.804;9.252;2022-12-24T08:28:18;9.20;88.30
70734;DHT22;58320;48.804;9.252;2022-12-24T08:30:46;9.20;88.10
70734;DHT22;58320;48.804;9.252;2022-12-24T08:33:13;9.30;88.10
70734;DHT22;58320;48.804;9.252;2022-12-24T08:35:39;9.30;88.20
70734;DHT22;58320;48.804;9.252;2022-12-24T08:38:04;9.40;88.00
70734;DHT22;58320;48.804;9.252;2022-12-24T08:40:30;9.40;87.50
70734;DHT22;58320;48.804;9.252;2022-12-24T08:42:56;9.50;86.60
70734;DHT22;58320;48.804;9.252;2022-12-24T08:45:22;9.50;86.50
70734;DHT22;58320;48.804;9.252;2022-12-24T08:47:47;9.50;86.90
70734;DHT22;58320;48.804;9.252;2022-12-24T08:50:13;9.50;86.50
70734;DHT22;58320;48.804;9.252;2022-12-24T08:52:39;9.40;85.90
70734;DHT22;58320;48.804;9.252;2022-12-24T08:55:05;9.40;86.50
70734;DHT22;58320;48.804;9.252;2022-12-24T08:57:35;9.40;86.10
70734;DHT22;58320;48.804;9.252;2022-12-24T09:00:02;9.30;85.20
70734;DHT22;58320;48.804;9.252;2022-12-24T09:02:29;9.30;85.80
70734;DHT22;58320;48.804;9.252;2022-12-24T09:04:55;9.40;85.40
70734;DHT22;58320;48.804;9.252;2022-12-24T09:07:21;9.40;84.70
70734;DHT22;58320;48.804;9.252;2022-12-24T09:09:47;9.40;84.40
70734;DHT22;58320;48.804;9.252;2022-12-24T09:12:12;9.50;84.50
70734;DHT22;58320;48.804;9.252;2022-12-24T09:14:38;9.50;84.70
70734;DHT22;58320;48.804;9.252;2022-12-24T09:17:04;9.60;84.70
70734;DHT22;58320;48.804;9.252;2022-12-24T09:19:30;9.70;84.10
70734;DHT22;58320;48.804;9.252;2022-12-24T09:21:55;9.80;83.70
70734;DHT22;58320;48.804;9.252;2022-12-24T09:24:21;9.80;82.70
70734;DHT22;58320;48.804;9.252;2022-12-24T09:26:47;9.90;82.70
70734;DHT22;58320;48.804;9.252;2022-12-24T09:29:14;9.90;82.70
70734;DHT22;58320;48.804;9.252;2022-12-24T09:31:41;10.00;82.10
70734;DHT22;58320;48.804;9.252;2022-12-24T09:34:07;10.10;82.20
70734;DHT22;58320;48.804;9.252;2022-12-24T09:36:33;10.30;81.20
70734;DHT22;58320;48.804;9.252;2022-12-24T09:38:59;10.50;79.20
70734;DHT22;58320;48.804;9.252;2022-12-24T09:47:41;10.70;77.40
70734;DHT22;58320;48.804;9.252;2022-12-24T09:50:23;10.80;76.30
70734;DHT22;58320;48.804;9.252;2022-12-24T09:52:58;10.90;76.00
70734;DHT22;58320;48.804;9.252;2022-12-24T09:55:33;11.00;76.50
70734;DHT22;58320;48.804;9.252;2022-12-24T09:58:04;11.10;76.50
70734;DHT22;58320;48.804;9.252;2022-12-24T10:00:34;11.30;75.30
70734;DHT22;58320;48.804;9.252;2022-12-24T10:03:14;11.50;75.10
70734;DHT22;58320;48.804;9.252;2022-12-24T10:05:52;11.70;74.60
70734;DHT22;58320;48.804;9.252;2022-12-24T10:11:02;11.90;71.70
70734;DHT22;58320;48.804;9.252;2022-12-24T10:22:17;12.20;71.00
70734;DHT22;58320;48.804;9.252;2022-12-24T10:24:57;12.60;70.30
70734;DHT22;58320;48.804;9.252;2022-12-24T10:27:45;12.80;67.90
70734;DHT22;58320;48.804;9.252;2022-12-24T10:30:29;12.60;68.40
70734;DHT22;58320;48.804;9.252;2022-12-24T10:32:55;12.40;68.40
70734;DHT22;58320;48.804;9.252;2022-12-24T10:35:33;12.30;69.30
70734;DHT22;58320;48.804;9.252;2022-12-24T10:38:01;12.10;69.80
70734;DHT22;58320;48.804;9.252;2022-12-24T10:43:14;11.80;70.50
70734;DHT22;58320;48.804;9.252;2022-12-24T10:45:48;11.70;71.10
70734;DHT22;58320;48.804;9.252;2022-12-24T10:48:27;11.70;70.60
70734;DHT22;58320;48.804;9.252;2022-12-24T10:51:10;11.70;71.20
70734;DHT22;58320;48.804;9.252;2022-12-24T10:54:33;11.70;70.90
70734;DHT22;58320;48.804;9.252;2022-12-24T10:56:58;11.80;71.20
70734;DHT22;58320;48.804;9.252;2022-12-24T11:02:32;12.00;70.20
70734;DHT22;58320;48.804;9.252;2022-12-24T11:05:00;12.00;71.00
70734;DHT22;58320;48.804;9.252;2022-12-24T11:07:30;12.00;71.00
70734;DHT22;58320;48.804;9.252;2022-12-24T11:10:05;11.90;71.10
70734;DHT22;58320;48.804;9.252;2022-12-24T11:12:35;11.90;71.10
70734;DHT22;58320;48.804;9.252;2022-12-24T11:15:06;11.90;71.40
70734;DHT22;58320;48.804;9.252;2022-12-24T11:17:40;11.70;71.90
70734;DHT22;58320;48.804;9.252;2022-12-24T11:20:15;11.70;72.80
70734;DHT22;58320;48.804;9.252;2022-12-24T11:22:49;11.60;73.50
70734;DHT22;58320;48.804;9.252;2022-12-24T11:25:19;11.50;73.60
70734;DHT22;58320;48.804;9.252;2022-12-24T11:27:48;11.40;73.80
70734;DHT22;58320;48.804;9.252;2022-12-24T11:33:16;11.30;74.40
70734;DHT22;58320;48.804;9.252;2022-12-24T11:35:46;11.30;75.10
70734;DHT22;58320;48.804;9.252;2022-12-24T11:38:24;11.30;75.40
70734;DHT22;58320;48.804;9.252;2022-12-24T11:41:17;11.30;75.20
70734;DHT22;58320;48.804;9.252;2022-12-24T11:43:48;11.30;75.20
70734;DHT22;58320;48.804;9.252;2022-12-24T11:46:20;11.30;75.10
70734;DHT22;58320;48.804;9.252;2022-12-24T11:48:47;11.40;74.80
70734;DHT22;58320;48.804;9.252;2022-12-24T11:51:22;11.50;74.60
70734;DHT22;58320;48.804;9.252;2022-12-24T11:54:03;11.70;73.70
70734;DHT22;58320;48.804;9.252;2022-12-24T11:56:43;11.80;73.40
70734;DHT22;58320;48.804;9.252;2022-12-24T12:02:40;12.10;71.60
70734;DHT22;58320;48.804;9.252;2022-12-24T12:04:56;12.20;71.30
70734;DHT22;58320;48.804;9.252;2022-12-24T12:07:30;12.30;71.00
70734;DHT22;58320;48.804;9.252;2022-12-24T12:10:04;12.40;70.10
70734;DHT22;58320;48.804;9.252;2022-12-24T12:12:45;12.30;68.90
70734;DHT22;58320;48.804;9.252;2022-12-24T12:15:18;12.30;69.40
70734;DHT22;58320;48.804;9.252;2022-12-24T12:20:57;12.30;69.90
70734;DHT22;58320;48.804;9.252;2022-12-24T12:23:34;12.30;69.40
70734;DHT22;58320;48.804;9.252;2022-12-24T12:28:48;12.20;69.90
70734;DHT22;58320;48.804;9.252;2022-12-24T12:31:34;12.30;70.10
70734;DHT22;58320;48.804;9.252;2022-12-24T12:34:20;12.30;70.00
70734;DHT22;58320;48.804;9.252;2022-12-24T12:37:00;12.30;69.30
70734;DHT22;58320;48.804;9.252;2022-12-24T12:39:30;12.30;69.60
70734;DHT22;58320;48.804;9.252;2022-12-24T12:50:57;12.00;73.80
70734;DHT22;58320;48.804;9.252;2022-12-24T12:56:37;12.00;72.80
70734;DHT22;58320;48.804;9.252;2022-12-24T12:59:24;11.90;73.30
70734;DHT22;58320;48.804;9.252;2022-12-24T13:18:53;12.90;71.40
70734;DHT22;58320;48.804;9.252;2022-12-24T13:21:26;13.10;71.10
70734;DHT22;58320;48.804;9.252;2022-12-24T13:26:41;13.30;70.80
70734;DHT22;58320;48.804;9.252;2022-12-24T13:29:30;13.40;70.70
70734;DHT22;58320;48.804;9.252;2022-12-24T13:50:39;13.90;66.30
70734;DHT22;58320;48.804;9.252;2022-12-24T13:58:36;13.70;67.40
70734;DHT22;58320;48.804;9.252;2022-12-24T14:01:13;13.50;67.40
70734;DHT22;58320;48.804;9.252;2022-12-24T14:03:50;13.30;68.10
70734;DHT22;58320;48.804;9.252;2022-12-24T14:06:25;13.10;69.40
70734;DHT22;58320;48.804;9.252;2022-12-24T14:08:57;13.00;70.30
70734;DHT22;58320;48.804;9.252;2022-12-24T14:14:28;12.90;71.50
70734;DHT22;58320;48.804;9.252;2022-12-24T14:19:46;12.60;75.40
70734;DHT22;58320;48.804;9.252;2022-12-24T14:22:37;12.30;76.80
70734;DHT22;58320;48.804;9.252;2022-12-24T14:25:18;12.10;78.00
70734;DHT22;58320;48.804;9.252;2022-12-24T14:28:03;11.90;79.10
70734;DHT22;58320;48.804;9.252;2022-12-24T14:30:31;11.80;79.90
70734;DHT22;58320;48.804;9.252;2022-12-24T14:32:57;11.60;80.90
70734;DHT22;58320;48.804;9.252;2022-12-24T14:35:26;11.50;81.30
70734;DHT22;58320;48.804;9.252;2022-12-24T14:38:00;11.50;81.60
70734;DHT22;58320;48.804;9.252;2022-12-24T14:40:31;11.40;81.80
70734;DHT22;58320;48.804;9.252;2022-12-24T14:48:41;11.20;82.90
70734;DHT22;58320;48.804;9.252;2022-12-24T14:51:20;11.20;82.90
70734;DHT22;58320;48.804;9.252;2022-12-24T14:56:45;11.00;83.60
70734;DHT22;58320;48.804;9.252;2022-12-24T14:59:19;10.90;84.00
70734;DHT22;58320;48.804;9.252;2022-12-24T15:01:45;10.90;84.30
70734;DHT22;58320;48.804;9.252;2022-12-24T15:06:47;10.70;85.10
70734;DHT22;58320;48.804;9.252;2022-12-24T15:09:30;10.60;85.40
70734;DHT22;58320;48.804;9.252;2022-12-24T15:11:59;10.60;85.30
70734;DHT22;58320;48.804;9.252;2022-12-24T15:14:29;10.60;85.30
70734;DHT22;58320;48.804;9.252;2022-12-24T15:17:04;10.50;85.40
70734;DHT22;58320;48.804;9.252;2022-12-24T15:19:41;10.50;85.70
70734;DHT22;58320;48.804;9.252;2022-12-24T15:22:11;10.40;85.90
70734;DHT22;58320;48.804;9.252;2022-12-24T15:24:58;10.30;86.40
70734;DHT22;58320;48.804;9.252;2022-12-24T15:27:26;10.20;86.90
70734;DHT22;58320;48.804;9.252;2022-12-24T15:29:56;10.10;87.30
70734;DHT22;58320;48.804;9.252;2022-12-24T15:32:22;10.10;87.50
70734;DHT22;58320;48.804;9.252;2022-12-24T15:34:51;10.10;87.60
70734;DHT22;58320;48.804;9.252;2022-12-24T15:39:57;10.00;87.60
70734;DHT22;58320;48.804;9.252;2022-12-24T15:42:43;10.00;87.60
70734;DHT22;58320;48.804;9.252;2022-12-24T15:45:20;9.90;87.70
70734;DHT22;58320;48.804;9.252;2022-12-24T15:47:53;9.90;87.70
70734;DHT22;58320;48.804;9.252;2022-12-24T15:50:45;9.80;88.10
70734;DHT22;58320;48.804;9.252;2022-12-24T15:53:14;9.80;88.20
70734;DHT22;58320;48.804;9.252;2022-12-24T15:55:47;9.80;87.30
70734;DHT22;58320;48.804;9.252;2022-12-24T15:58:28;9.80;87.40
70734;DHT22;58320;48.804;9.252;2022-12-24T16:03:35;9.80;87.20
70734;DHT22;58320;48.804;9.252;2022-12-24T16:06:07;9.80;87.10
70734;DHT22;58320;48.804;9.252;2022-12-24T16:08:35;9.80;86.60
70734;DHT22;58320;48.804;9.252;2022-12-24T16:11:18;9.80;86.20
70734;DHT22;58320;48.804;9.252;2022-12-24T16:16:40;9.80;86.10
70734;DHT22;58320;48.804;9.252;2022-12-24T16:19:34;9.80;86.20
70734;DHT22;58320;48.804;9.252;2022-12-24T16:22:01;9.80;85.90
70734;DHT22;58320;48.804;9.252;2022-12-24T16:24:45;9.70;85.90
70734;DHT22;58320;48.804;9.252;2022-12-24T16:27:12;9.70;86.00
70734;DHT22;58320;48.804;9.252;2022-12-24T16:29:39;9.70;86.10
70734;DHT22;58320;48.804;9.252;2022-12-24T16:32:05;9.70;86.10
70734;DHT22;58320;48.804;9.252;2022-12-24T16:34:31;9.70;86.20
70734;DHT22;58320;48.804;9.252;2022-12-24T16:36:58;9.60;86.20
70734;DHT22;58320;48.804;9.252;2022-12-24T16:39:30;9.70;86.10
70734;DHT22;58320;48.804;9.252;2022-12-24T16:41:59;9.70;86.00
70734;DHT22;58320;48.804;9.252;2022-12-24T16:44:46;9.70;86.10
70734;DHT22;58320;48.804;9.252;2022-12-24T16:47:19;9.70;86.10
70734;DHT22;58320;48.804;9.252;2022-12-24T16:49:46;9.70;86.00
70734;DHT22;58320;48.804;9.252;2022-12-24T16:52:20;9.70;86.00
70734;DHT22;58320;48.804;9.252;2022-12-24T16:54:48;9.80;86.10
70734;DHT22;58320;48.804;9.252;2022-12-24T16:57:14;9.80;86.10
70734;DHT22;58320;48.804;9.252;2022-12-24T16:59:41;9.80;86.10
70734;DHT22;58320;48.804;9.252;2022-12-24T17:02:13;9.80;86.10
70734;DHT22;58320;48.804;9.252;2022-12-24T17:04:40;9.90;85.80
70734;DHT22;58320;48.804;9.252;2022-12-24T17:07:06;9.90;85.70
70734;DHT22;58320;48.804;9.252;2022-12-24T17:09:32;10.00;85.40
70734;DHT22;58320;48.804;9.252;2022-12-24T17:11:58;10.00;85.40
70734;DHT22;58320;48.804;9.252;2022-12-24T17:14:25;10.00;85.10
70734;DHT22;58320;48.804;9.252;2022-12-24T17:16:51;10.00;85.10
70734;DHT22;58320;48.804;9.252;2022-12-24T17:19:16;10.00;85.20
70734;DHT22;58320;48.804;9.252;2022-12-24T17:21:42;10.00;85.00
70734;DHT22;58320;48.804;9.252;2022-12-24T17:24:08;10.00;85.10
70734;DHT22;58320;48.804;9.252;2022-12-24T17:26:35;10.00;85.20
70734;DHT22;58320;48.804;9.252;2022-12-24T17:29:01;10.00;84.40
70734;DHT22;58320;48.804;9.252;2022-12-24T17:31:30;10.00;84.10
70734;DHT22;58320;48.804;9.252;2022-12-24T17:33:57;10.00;84.30
70734;DHT22;58320;48.804;9.252;2022-12-24T17:36:23;9.90;84.50
70734;DHT22;58320;48.804;9.252;2022-12-24T17:38:50;9.90;84.70
70734;DHT22;58320;48.804;9.252;2022-12-24T17:41:18;9.90;85.00
70734;DHT22;58320;48.804;9.252;2022-12-24T17:43:45;9.90;85.10
70734;DHT22;58320;48.804;9.252;2022-12-24T17:46:17;9.90;85.10
70734;DHT22;58320;48.804;9.252;2022-12-24T17:48:47;9.90;85.20
70734;DHT22;58320;48.804;9.252;2022-12-24T17:51:15;9.90;85.00
70734;DHT22;58320;48.804;9.252;2022-12-24T17:53:42;9.90;85.00
70734;DHT22;58320;48.804;9.252;2022-12-24T17:56:10;9.90;85.10
70734;DHT22;58320;48.804;9.252;2022-12-24T17:58:37;9.90;85.00
70734;DHT22;58320;48.804;9.252;2022-12-24T18:01:05;10.00;84.80
70734;DHT22;58320;48.804;9.252;2022-12-24T18:03:31;10.00;83.20
70734;DHT22;58320;48.804;9.252;2022-12-24T18:06:04;10.00;83.10
70734;DHT22;58320;48.804;9.252;2022-12-24T18:08:31;10.00;82.60
70734;DHT22;58320;48.804;9.252;2022-12-24T18:10:57;10.00;82.30
70734;DHT22;58320;48.804;9.252;2022-12-24T18:13:23;10.00;82.10
70734;DHT22;58320;48.804;9.252;2022-12-24T18:15:49;10.00;81.80
70734;DHT22;58320;48.804;9.252;2022-12-24T18:18:14;10.00;81.30
70734;DHT22;58320;48.804;9.252;2022-12-24T18:20:40;10.10;81.30